Time;durP1;ratioP1;P1;durP2;ratioP2;P2;SDS_P1;SDS_P2;PMS_P1;PMS_P2;Temp;Humidity;BMP_temperature;BMP_pressure;BME280_temperature;BME280_humidity;BME280_pressure;Samples;Min_cycle;Max_cycle;Signal;HPM_P1;HPM_P2
2023/02/01 00:01:07;;;;;;;;;;;;;;;21.55;33.36;100808.56;106127;1286;61272;-81
2023/02/01 00:03:33;;;;;;;;;;;;;;;21.55;33.15;100817.34;106092;1284;73116;-81
2023/02/01 00:05:58;;;;;;;;;;;;;;;21.55;33.38;100821.30;106085;1282;61418;-82
2023/02/01 00:08:24;;;;;;;;;;;;;;;21.55;33.32;100824.55;106119;1288;61255;-82
2023/02/01 00:10:57;;;;;;;;;;;;;;;21.55;33.30;100830.45;106102;1283;61281;-82
2023/02/01 00:13:22;;;;;;;;;;;;;;;21.55;33.47;100833.87;106175;1285;72240;-82
2023/02/01 00:15:48;;;;;;;;;;;;;;;21.54;33.32;100827.09;106004;1288;61253;-82
2023/02/01 00:18:13;;;;;;;;;;;;;;;21.54;33.27;100835.48;106109;1288;61388;-82
2023/02/01 00:20:39;;;;;;;;;;;;;;;21.55;33.24;100839.95;106225;1282;61279;-82
2023/02/01 00:23:04;;;;;;;;;;;;;;;21.55;33.38;100845.45;106129;1282;61259;-82
2023/02/01 00:25:31;;;;;;;;;;;;;;;21.55;33.48;100845.11;106113;1284;61318;-82
2023/02/01 00:27:59;;;;;;;;;;;;;;;21.56;33.33;100848.48;106120;1283;73606;-82
2023/02/01 00:30:24;;;;;;;;;;;;;;;21.55;33.26;100843.32;106121;1283;61141;-82
2023/02/01 00:32:50;;;;;;;;;;;;;;;21.55;33.39;100841.33;106123;1288;61358;-82
2023/02/01 00:35:15;;;;;;;;;;;;;;;21.56;33.27;100842.04;105985;1285;61241;-82
2023/02/01 00:37:41;;;;;;;;;;;;;;;21.56;33.38;100846.48;106098;1287;61282;-82
2023/02/01 00:40:07;;;;;;;;;;;;;;;21.56;33.32;100840.55;106171;1283;61279;-82
2023/02/01 00:42:32;;;;;;;;;;;;;;;21.56;33.41;100842.89;106095;1283;61394;-82
2023/02/01 00:44:58;;;;;;;;;;;;;;;21.56;33.28;100834.98;106138;1282;61323;-82
2023/02/01 00:47:23;;;;;;;;;;;;;;;21.56;33.36;100834.99;106173;1289;61274;-82
2023/02/01 00:49:49;;;;;;;;;;;;;;;21.56;33.32;100831.20;105997;1288;61343;-82
2023/02/01 00:52:14;;;;;;;;;;;;;;;21.56;33.42;100831.94;106127;1287;61282;-82
2023/02/01 00:54:41;;;;;;;;;;;;;;;21.56;33.29;100832.83;105992;1283;61220;-82
2023/02/01 00:57:06;;;;;;;;;;;;;;;21.56;33.40;100827.85;106206;1282;59995;-82
2023/02/01 00:59:32;;;;;;;;;;;;;;;21.57;33.25;100826.20;106201;1283;61439;-82
2023/02/01 01:01:57;;;;;;;;;;;;;;;21.56;33.29;100819.77;106078;1287;61222;-82
2023/02/01 01:04:23;;;;;;;;;;;;;;;21.57;33.23;100814.75;106006;1282;61459;-82
2023/02/01 01:06:48;;;;;;;;;;;;;;;21.57;33.31;100810.06;106233;1283;61270;-82
2023/02/01 01:09:14;;;;;;;;;;;;;;;21.56;33.34;100808.33;106049;1283;61428;-82
2023/02/01 01:11:39;;;;;;;;;;;;;;;21.57;33.35;100803.80;106186;1283;61362;-82
2023/02/01 01:14:05;;;;;;;;;;;;;;;21.57;33.24;100800.94;106190;1283;61258;-82
2023/02/01 01:16:54;;;;;;;;;;;;;;;21.57;33.29;100798.23;106022;1282;61310;-82
2023/02/01 01:19:19;;;;;;;;;;;;;;;21.56;33.32;100796.29;105639;1289;61322;-82
2023/02/01 01:21:45;;;;;;;;;;;;;;;21.56;33.32;100797.73;105639;1289;61466;-82
2023/02/01 01:24:10;;;;;;;;;;;;;;;21.57;33.28;100795.73;105539;1293;61307;-82
2023/02/01 01:26:36;;;;;;;;;;;;;;;21.57;33.30;100798.22;104866;1289;915442;-82
2023/02/01 01:29:01;;;;;;;;;;;;;;;21.57;33.25;100794.30;105677;1288;61156;-82
2023/02/01 01:31:27;;;;;;;;;;;;;;;21.57;33.42;100797.02;105414;1290;61319;-82
2023/02/01 01:33:53;;;;;;;;;;;;;;;21.57;33.45;100799.84;105488;1293;61335;-82
2023/02/01 01:36:19;;;;;;;;;;;;;;;21.57;33.33;100807.52;105459;1288;61354;-82
2023/02/01 01:38:44;;;;;;;;;;;;;;;21.57;33.27;100814.15;105441;1288;61345;-82
2023/02/01 01:41:12;;;;;;;;;;;;;;;21.57;33.24;100814.53;105512;1288;61308;-82
2023/02/01 01:43:45;;;;;;;;;;;;;;;21.57;33.35;100808.96;105521;1287;61737;-82
2023/02/01 01:46:15;;;;;;;;;;;;;;;21.58;33.25;100803.94;105499;1289;75647;-82
2023/02/01 01:48:40;;;;;;;;;;;;;;;21.57;33.46;100805.36;105631;1289;61166;-82
2023/02/01 01:51:08;;;;;;;;;;;;;;;21.57;33.28;100804.83;105537;1290;61540;-82
2023/02/01 01:53:36;;;;;;;;;;;;;;;21.57;33.55;100807.52;105672;1289;72378;-82
2023/02/01 01:56:02;;;;;;;;;;;;;;;21.57;33.36;100810.23;105715;1288;75360;-82
2023/02/01 01:58:27;;;;;;;;;;;;;;;21.57;33.19;100810.75;106196;1282;61344;-82
2023/02/01 02:00:53;;;;;;;;;;;;;;;21.57;33.41;100809.66;106101;1282;61373;-82
2023/02/01 02:03:19;;;;;;;;;;;;;;;21.57;33.45;100813.27;106113;1282;61279;-82
2023/02/01 02:05:46;;;;;;;;;;;;;;;21.57;33.40;100812.58;106194;1282;61208;-82
2023/02/01 02:08:11;;;;;;;;;;;;;;;21.57;33.28;100809.52;106199;1282;61250;-82
2023/02/01 02:13:21;;;;;;;;;;;;;;;21.56;33.33;100803.47;106231;1282;61256;-82
2023/02/01 02:15:55;;;;;;;;;;;;;;;21.56;33.36;100802.23;106059;1282;61394;-82
2023/02/01 02:18:47;;;;;;;;;;;;;;;21.56;33.47;100802.39;106181;1282;74541;-82
2023/02/01 02:21:14;;;;;;;;;;;;;;;21.57;33.33;100803.27;106161;1282;60937;-82
2023/02/01 02:23:48;;;;;;;;;;;;;;;21.57;33.41;100798.09;106109;1283;61256;-82
2023/02/01 02:26:40;;;;;;;;;;;;;;;21.56;33.41;100799.89;106193;1283;73347;-82
2023/02/01 02:29:21;;;;;;;;;;;;;;;21.56;33.30;100799.00;105883;1282;74450;-82
2023/02/01 02:32:05;;;;;;;;;;;;;;;21.56;33.27;100804.38;106219;1282;61266;-82
2023/02/01 02:34:40;;;;;;;;;;;;;;;21.57;33.37;100808.83;106175;1282;61173;-82
2023/02/01 02:37:12;;;;;;;;;;;;;;;21.57;33.30;100812.05;106066;1284;72556;-82
2023/02/01 02:39:57;;;;;;;;;;;;;;;21.57;33.38;100808.45;106070;1282;75417;-82
2023/02/01 02:47:55;;;;;;;;;;;;;;;21.56;33.32;100809.55;106209;1282;72614;-82
2023/02/01 03:04:40;;;;;;;;;;;;;;;21.57;33.26;100805.77;106115;1282;61158;-82
2023/02/01 03:07:35;;;;;;;;;;;;;;;21.57;33.26;100808.63;106211;1282;61350;-82
2023/02/01 03:10:04;;;;;;;;;;;;;;;21.57;33.34;100804.87;106264;1282;72493;-82
2023/02/01 03:15:13;;;;;;;;;;;;;;;21.57;33.41;100825.64;106168;1285;61142;-82
2023/02/01 03:17:39;;;;;;;;;;;;;;;21.56;33.26;100825.48;105979;1285;61232;-82
2023/02/01 03:20:05;;;;;;;;;;;;;;;21.57;33.27;100817.73;106101;1282;61420;-82
2023/02/01 03:22:31;;;;;;;;;;;;;;;21.57;33.29;100814.15;106120;1282;61292;-82
2023/02/01 03:25:01;;;;;;;;;;;;;;;21.57;33.31;100812.19;106196;1282;61234;-82
2023/02/01 03:27:30;;;;;;;;;;;;;;;21.56;33.36;100812.59;106177;1283;61408;-82
2023/02/01 03:29:57;;;;;;;;;;;;;;;21.57;33.38;100817.77;106124;1282;72547;-82
2023/02/01 03:32:23;;;;;;;;;;;;;;;21.56;33.26;100817.80;106200;1282;74200;-82
2023/02/01 03:34:48;;;;;;;;;;;;;;;21.56;33.35;100814.95;106086;1282;61291;-82
2023/02/01 03:37:15;;;;;;;;;;;;;;;21.56;33.26;100816.36;106175;1282;61238;-82
2023/02/01 03:39:48;;;;;;;;;;;;;;;21.56;33.33;100813.50;106108;1288;61266;-82
2023/02/01 03:42:19;;;;;;;;;;;;;;;21.56;33.18;100812.80;106119;1282;74387;-82
2023/02/01 03:44:44;;;;;;;;;;;;;;;21.56;33.25;100806.92;106177;1282;61717;-82
2023/02/01 03:47:10;;;;;;;;;;;;;;;21.56;33.22;100809.02;106191;1282;61365;-82
2023/02/01 03:49:36;;;;;;;;;;;;;;;21.56;33.32;100805.98;106170;1282;61263;-82
2023/02/01 03:52:03;;;;;;;;;;;;;;;21.56;33.21;100811.75;106176;1282;61340;-82
2023/02/01 03:54:29;;;;;;;;;;;;;;;21.55;33.25;100809.46;106119;1282;61311;-82
2023/02/01 03:56:55;;;;;;;;;;;;;;;21.55;33.23;100809.46;106220;1282;61337;-82
2023/02/01 03:59:21;;;;;;;;;;;;;;;21.55;33.27;100807.88;106122;1282;61247;-82
2023/02/01 04:01:46;;;;;;;;;;;;;;;21.55;33.29;100806.79;106173;1282;61285;-82
2023/02/01 04:04:19;;;;;;;;;;;;;;;21.55;33.32;100806.27;106139;1283;61376;-82
2023/02/01 04:06:48;;;;;;;;;;;;;;;21.55;33.17;100801.80;106193;1282;61176;-82
2023/02/01 04:09:14;;;;;;;;;;;;;;;21.55;33.22;100804.45;106207;1282;61150;-82
2023/02/01 04:11:39;;;;;;;;;;;;;;;21.55;33.35;100802.30;106125;1282;61370;-82
2023/02/01 04:14:07;;;;;;;;;;;;;;;21.54;33.19;100800.05;106185;1282;60022;-82
2023/02/01 04:16:33;;;;;;;;;;;;;;;21.55;33.29;100800.54;106184;1282;61285;-82
2023/02/01 04:18:58;;;;;;;;;;;;;;;21.55;33.36;100808.05;106104;1282;61276;-82
2023/02/01 04:21:27;;;;;;;;;;;;;;;21.55;33.16;100801.61;106104;1287;61312;-82
2023/02/01 04:23:52;;;;;;;;;;;;;;;21.55;33.23;100798.91;105989;1286;61933;-82
2023/02/01 04:26:19;;;;;;;;;;;;;;;21.55;33.28;100797.66;106109;1287;61237;-82
2023/02/01 04:28:47;;;;;;;;;;;;;;;21.55;33.14;100801.41;106093;1282;61337;-82
2023/02/01 04:31:16;;;;;;;;;;;;;;;21.54;33.20;100802.17;106129;1282;73367;-82
2023/02/01 04:33:42;;;;;;;;;;;;;;;21.54;33.11;100799.85;105981;1288;73686;-82
2023/02/01 04:36:08;;;;;;;;;;;;;;;21.55;33.11;100801.98;106196;1282;61233;-82
2023/02/01 04:38:33;;;;;;;;;;;;;;;21.55;33.10;100798.58;106102;1282;61237;-82
2023/02/01 04:40:59;;;;;;;;;;;;;;;21.55;33.09;100796.61;106142;1282;61305;-82
2023/02/01 04:43:24;;;;;;;;;;;;;;;21.55;33.25;100794.98;106183;1283;61295;-82
2023/02/01 04:45:50;;;;;;;;;;;;;;;21.55;33.33;100793.02;106168;1282;60015;-82
2023/02/01 04:48:16;;;;;;;;;;;;;;;21.55;33.27;100795.36;105991;1282;61282;-82
2023/02/01 04:50:42;;;;;;;;;;;;;;;21.55;33.05;100808.61;106209;1282;61323;-82
2023/02/01 04:53:07;;;;;;;;;;;;;;;21.55;33.31;100811.12;105977;1282;61248;-82
2023/02/01 04:55:35;;;;;;;;;;;;;;;21.55;33.19;100814.88;105968;1282;61399;-82
2023/02/01 04:58:00;;;;;;;;;;;;;;;21.54;33.10;100809.70;106186;1282;61357;-82
2023/02/01 05:00:26;;;;;;;;;;;;;;;21.54;33.04;100808.30;105948;1283;61353;-82
2023/02/01 05:02:51;;;;;;;;;;;;;;;21.54;33.11;100811.73;106002;1284;61267;-82
2023/02/01 05:05:17;;;;;;;;;;;;;;;21.53;32.98;100816.24;106052;1283;61339;-82
2023/02/01 05:07:42;;;;;;;;;;;;;;;21.53;32.83;100818.02;106087;1283;75503;-82
2023/02/01 05:10:08;;;;;;;;;;;;;;;21.53;32.76;100816.41;106056;1283;61295;-82
2023/02/01 05:15:18;;;;;;;;;;;;;;;21.53;32.67;100820.36;106035;1285;71799;-83
2023/02/01 05:17:43;;;;;;;;;;;;;;;21.52;32.70;100813.23;106035;1283;61316;-82
2023/02/01 05:20:09;;;;;;;;;;;;;;;21.52;32.60;100820.98;106068;1283;61267;-82
2023/02/01 05:22:34;;;;;;;;;;;;;;;21.51;32.70;100830.54;106025;1283;61326;-82
2023/02/01 05:25:01;;;;;;;;;;;;;;;21.49;32.72;100832.61;106142;1283;61283;-82
2023/02/01 05:27:28;;;;;;;;;;;;;;;21.49;32.53;100829.08;106189;1284;72835;-83
2023/02/01 05:29:54;;;;;;;;;;;;;;;21.48;32.70;100836.13;106133;1282;75354;-83
2023/02/01 05:32:19;;;;;;;;;;;;;;;21.46;32.66;100834.12;106239;1282;61353;-83
2023/02/01 05:34:45;;;;;;;;;;;;;;;21.42;32.42;100833.82;106206;1282;61313;-83
2023/02/01 05:37:10;;;;;;;;;;;;;;;21.36;32.32;100829.65;106142;1282;59621;-83
2023/02/01 05:39:36;;;;;;;;;;;;;;;21.27;32.38;100823.96;106254;1282;61419;-83
2023/02/01 05:42:02;;;;;;;;;;;;;;;21.20;32.49;100822.57;106173;1282;74426;-83
2023/02/01 05:44:27;;;;;;;;;;;;;;;21.14;32.40;100820.27;106274;1282;61289;-82
2023/02/01 05:46:53;;;;;;;;;;;;;;;21.09;32.36;100815.28;106148;1282;61337;-83
2023/02/01 05:49:19;;;;;;;;;;;;;;;21.03;32.22;100815.48;106338;1283;61279;-83
2023/02/01 05:51:45;;;;;;;;;;;;;;;20.98;32.29;100818.02;106342;1282;60022;-83
2023/02/01 05:54:10;;;;;;;;;;;;;;;20.91;32.22;100816.30;106188;1282;62458;-83
2023/02/01 05:56:36;;;;;;;;;;;;;;;20.84;32.16;100808.60;106190;1282;60713;-83
2023/02/01 05:59:01;;;;;;;;;;;;;;;20.77;32.02;100803.02;106228;1283;60029;-82
2023/02/01 06:01:27;;;;;;;;;;;;;;;20.71;31.87;100801.45;106213;1282;60656;-83
2023/02/01 06:03:53;;;;;;;;;;;;;;;20.65;31.86;100805.05;106080;1285;60166;-82
2023/02/01 06:06:19;;;;;;;;;;;;;;;20.60;31.91;100810.23;106148;1283;59981;-83
2023/02/01 06:08:45;;;;;;;;;;;;;;;20.56;31.89;100806.95;106092;1283;61404;-83
2023/02/01 06:11:10;;;;;;;;;;;;;;;20.52;31.83;100808.06;106218;1283;61180;-82
2023/02/01 06:13:38;;;;;;;;;;;;;;;20.49;31.98;100813.31;106240;1286;61328;-82
2023/02/01 06:16:07;;;;;;;;;;;;;;;20.48;31.98;100816.45;106179;1283;74515;-82
2023/02/01 06:18:33;;;;;;;;;;;;;;;20.50;31.78;100817.02;106247;1285;60011;-82
2023/02/01 06:21:01;;;;;;;;;;;;;;;20.53;31.82;100813.17;106078;1288;59689;-82
2023/02/01 06:23:30;;;;;;;;;;;;;;;20.59;31.58;100814.05;106195;1285;72380;-83
2023/02/01 06:26:00;;;;;;;;;;;;;;;20.65;31.70;100820.61;106248;1284;75755;-83
2023/02/01 06:28:25;;;;;;;;;;;;;;;20.70;31.50;100822.41;106312;1282;60050;-82
2023/02/01 06:30:51;;;;;;;;;;;;;;;20.76;31.71;100818.65;106233;1282;60533;-82
2023/02/01 06:33:16;;;;;;;;;;;;;;;20.83;31.59;100822.83;106309;1282;59961;-82
2023/02/01 06:35:43;;;;;;;;;;;;;;;20.89;31.54;100818.64;106212;1282;60194;-82
2023/02/01 06:38:10;;;;;;;;;;;;;;;20.95;31.56;100823.59;106343;1282;60119;-83
2023/02/01 06:40:35;;;;;;;;;;;;;;;21.00;31.67;100829.13;106217;1282;62101;-83
2023/02/01 06:43:01;;;;;;;;;;;;;;;21.04;31.46;100825.63;106342;1282;59714;-83
2023/02/01 06:48:09;;;;;;;;;;;;;;;21.14;31.43;100830.83;105053;1293;599904;-80
2023/02/01 06:50:35;;;;;;;;;;;;;;;21.16;31.43;100838.06;105324;1296;58677;-81
2023/02/01 06:53:01;;;;;;;;;;;;;;;21.19;31.30;100843.02;105448;1292;57649;-80
2023/02/01 06:55:26;;;;;;;;;;;;;;;21.20;31.51;100838.14;105457;1294;59288;-82
2023/02/01 06:57:55;;;;;;;;;;;;;;;21.19;31.39;100837.27;105473;1298;58516;-80
2023/02/01 07:00:21;;;;;;;;;;;;;;;21.18;31.47;100833.59;105295;1298;72315;-80
2023/02/01 07:02:47;;;;;;;;;;;;;;;21.16;31.45;100832.66;104876;1291;734552;-81
2023/02/01 07:05:12;;;;;;;;;;;;;;;21.16;31.54;100831.73;105648;1291;58679;-80
2023/02/01 07:07:37;;;;;;;;;;;;;;;21.18;31.50;100824.45;105583;1292;58879;-81
2023/02/01 07:10:03;;;;;;;;;;;;;;;21.20;31.54;100820.21;105578;1292;58881;-81
2023/02/01 07:12:29;;;;;;;;;;;;;;;21.24;31.56;100823.16;105528;1292;59954;-81
2023/02/01 07:14:54;;;;;;;;;;;;;;;21.26;31.61;100821.16;105550;1295;73743;-81
2023/02/01 07:17:20;;;;;;;;;;;;;;;21.30;31.68;100823.27;105721;1293;60124;-81
2023/02/01 07:19:46;;;;;;;;;;;;;;;21.32;31.60;100827.08;105583;1292;58833;-81
2023/02/01 07:22:12;;;;;;;;;;;;;;;21.32;31.65;100827.04;105543;1295;59195;-80
2023/02/01 07:24:38;;;;;;;;;;;;;;;21.32;31.56;100827.05;105560;1293;58936;-80
2023/02/01 07:27:03;;;;;;;;;;;;;;;21.32;31.58;100829.53;105707;1293;58399;-80
2023/02/01 07:29:29;;;;;;;;;;;;;;;21.32;31.48;100831.17;105701;1293;58528;-80
2023/02/01 07:31:55;;;;;;;;;;;;;;;21.31;31.56;100820.52;105570;1292;59162;-81
2023/02/01 07:34:20;;;;;;;;;;;;;;;21.29;31.69;100819.91;105660;1291;58346;-80
2023/02/01 07:36:46;;;;;;;;;;;;;;;21.29;31.68;100824.25;105656;1291;59627;-80
2023/02/01 07:39:12;;;;;;;;;;;;;;;21.28;31.66;100824.29;105713;1289;59691;-80
2023/02/01 07:41:37;;;;;;;;;;;;;;;21.27;31.65;100822.23;105657;1290;58445;-81
2023/02/01 07:44:03;;;;;;;;;;;;;;;21.25;31.72;100828.23;105663;1291;58782;-80
2023/02/01 07:46:28;;;;;;;;;;;;;;;21.24;31.79;100832.27;105681;1292;59371;-80
2023/02/01 07:48:54;;;;;;;;;;;;;;;21.23;31.67;100830.92;105670;1292;59284;-80
2023/02/01 07:51:19;;;;;;;;;;;;;;;21.21;31.85;100836.76;105535;1292;57972;-81
2023/02/01 07:53:44;;;;;;;;;;;;;;;21.20;31.70;100833.98;105447;1292;59332;-80
2023/02/01 07:56:16;;;;;;;;;;;;;;;21.17;31.46;100836.00;105526;1292;59606;-81
2023/02/01 07:58:41;;;;;;;;;;;;;;;21.13;31.61;100835.73;105505;1292;72530;-82
2023/02/01 08:01:19;;;;;;;;;;;;;;;21.08;31.73;100835.31;105500;1292;59637;-81
2023/02/01 08:03:45;;;;;;;;;;;;;;;21.03;32.02;100838.39;105959;1291;60154;-80
2023/02/01 08:06:11;;;;;;;;;;;;;;;20.96;32.06;100845.66;105839;1291;58151;-82
2023/02/01 08:08:36;;;;;;;;;;;;;;;20.91;32.21;100844.96;105922;1290;58363;-82
2023/02/01 08:11:02;;;;;;;;;;;;;;;20.87;32.41;100844.15;105980;1292;57662;-83
2023/02/01 08:13:28;;;;;;;;;;;;;;;20.86;32.50;100847.07;105786;1292;59184;-81
2023/02/01 08:15:58;;;;;;;;;;;;;;;20.85;32.62;100847.71;105867;1295;58582;-82
2023/02/01 08:18:24;;;;;;;;;;;;;;;20.84;32.70;100843.67;106007;1291;72644;-82
2023/02/01 08:20:50;;;;;;;;;;;;;;;20.83;32.59;100837.15;106011;1292;57983;-82
2023/02/01 08:23:16;;;;;;;;;;;;;;;20.83;32.72;100837.81;105684;1291;58361;-82
2023/02/01 08:25:42;;;;;;;;;;;;;;;20.84;32.74;100839.52;105629;1291;57944;-82
2023/02/01 08:28:08;;;;;;;;;;;;;;;20.86;32.84;100838.51;105598;1292;58701;-82
2023/02/01 08:30:33;;;;;;;;;;;;;;;20.88;32.72;100840.20;105576;1291;59800;-81
2023/02/01 08:32:59;;;;;;;;;;;;;;;20.90;32.66;100847.70;105634;1292;58698;-81
2023/02/01 08:35:24;;;;;;;;;;;;;;;20.91;32.75;100850.34;105592;1293;59754;-81
2023/02/01 08:37:50;;;;;;;;;;;;;;;20.93;32.81;100850.92;105647;1291;60311;-82
2023/02/01 08:40:16;;;;;;;;;;;;;;;20.94;32.70;100854.95;105613;1292;58404;-82
2023/02/01 08:42:50;;;;;;;;;;;;;;;20.96;32.66;100851.77;105610;1292;59763;-82
2023/02/01 08:45:16;;;;;;;;;;;;;;;20.99;32.74;100852.84;105604;1293;59635;-82
2023/02/01 08:47:41;;;;;;;;;;;;;;;21.00;32.65;100852.55;105530;1291;58813;-83
2023/02/01 08:50:07;;;;;;;;;;;;;;;21.01;32.72;100850.56;105568;1292;59781;-82
2023/02/01 08:52:32;;;;;;;;;;;;;;;21.00;32.66;100846.48;105562;1292;59291;-82
2023/02/01 08:54:58;;;;;;;;;;;;;;;20.98;32.77;100843.92;105530;1293;59666;-82
2023/02/01 08:57:23;;;;;;;;;;;;;;;20.97;32.88;100838.29;105554;1292;58794;-81
2023/02/01 08:59:49;;;;;;;;;;;;;;;20.98;32.87;100841.46;105599;1292;59870;-83
2023/02/01 09:02:15;;;;;;;;;;;;;;;20.99;33.18;100846.17;105471;1292;58608;-82
2023/02/01 09:04:41;;;;;;;;;;;;;;;20.98;32.98;100841.29;105181;1292;60628;-83
2023/02/01 09:07:07;;;;;;;;;;;;;;;20.90;32.77;100839.65;105139;1296;58618;-83
2023/02/01 09:09:32;;;;;;;;;;;;;;;20.78;32.65;100830.66;105361;1294;59665;-83
2023/02/01 09:11:58;;;;;;;;;;;;;;;20.66;32.77;100825.19;105141;1294;61298;-83
2023/02/01 09:14:23;;;;;;;;;;;;;;;20.63;32.78;100828.48;105282;1294;59019;-83
2023/02/01 09:16:49;;;;;;;;;;;;;;;20.60;32.86;100825.06;105184;1294;58175;-83
2023/02/01 09:19:14;;;;;;;;;;;;;;;20.58;32.72;100833.02;105249;1292;58737;-82
2023/02/01 09:21:40;;;;;;;;;;;;;;;20.58;32.62;100829.33;105057;1294;59237;-81
2023/02/01 09:24:08;;;;;;;;;;;;;;;20.57;32.73;100822.55;105162;1295;58718;-81
2023/02/01 09:26:36;;;;;;;;;;;;;;;20.58;32.63;100823.77;105179;1295;73549;-81
2023/02/01 09:29:01;;;;;;;;;;;;;;;20.60;32.78;100821.27;105323;1295;73139;-83
2023/02/01 09:31:27;;;;;;;;;;;;;;;20.63;32.70;100818.23;105330;1294;58286;-82
2023/02/01 09:33:52;;;;;;;;;;;;;;;20.64;32.75;100811.55;105356;1294;58657;-83
2023/02/01 09:36:19;;;;;;;;;;;;;;;20.64;32.70;100806.58;105536;1290;59570;-82
2023/02/01 09:38:45;;;;;;;;;;;;;;;20.61;32.76;100802.13;105568;1291;59193;-83
2023/02/01 09:41:37;;;;;;;;;;;;;;;20.58;32.64;100799.26;105579;1295;59649;-82
2023/02/01 09:44:15;;;;;;;;;;;;;;;20.55;32.67;100797.16;105632;1292;60274;-82
2023/02/01 09:46:41;;;;;;;;;;;;;;;20.53;32.78;100796.61;105641;1291;73298;-82
2023/02/01 09:49:11;;;;;;;;;;;;;;;20.50;32.88;100798.00;105555;1293;59904;-82
2023/02/01 09:51:37;;;;;;;;;;;;;;;20.49;32.64;100795.98;105795;1289;60757;-81
2023/02/01 09:54:09;;;;;;;;;;;;;;;20.48;32.72;100792.10;105810;1288;59091;-81
2023/02/01 09:56:35;;;;;;;;;;;;;;;20.48;32.78;100791.89;106132;1289;74484;-82
2023/02/01 09:59:04;;;;;;;;;;;;;;;20.50;32.55;100792.17;106076;1289;73109;-83
2023/02/01 10:01:29;;;;;;;;;;;;;;;20.51;32.74;100789.95;106153;1288;60002;-82
2023/02/01 10:04:01;;;;;;;;;;;;;;;20.50;32.60;100785.70;105959;1288;58206;-82
2023/02/01 10:06:36;;;;;;;;;;;;;;;20.46;32.61;100786.54;105813;1288;72484;-82
2023/02/01 10:09:10;;;;;;;;;;;;;;;20.41;32.49;100786.48;106167;1288;73674;-82
2023/02/01 10:11:48;;;;;;;;;;;;;;;20.34;32.35;100779.80;106061;1288;59288;-82
2023/02/01 10:14:34;;;;;;;;;;;;;;;20.30;32.45;100780.30;106071;1289;59694;-82
2023/02/01 10:17:04;;;;;;;;;;;;;;;20.27;32.48;100777.63;105796;1288;73812;-83
2023/02/01 10:19:48;;;;;;;;;;;;;;;20.25;32.35;100778.27;106115;1289;72894;-82
2023/02/01 10:22:20;;;;;;;;;;;;;;;20.22;32.28;100769.90;106205;1289;59946;-81
2023/02/01 10:24:56;;;;;;;;;;;;;;;20.21;32.19;100769.07;106261;1288;59276;-82
2023/02/01 10:27:32;;;;;;;;;;;;;;;20.23;32.18;100769.14;106174;1289;72614;-83
2023/02/01 10:29:59;;;;;;;;;;;;;;;20.27;32.06;100766.36;106277;1289;73965;-81
2023/02/01 10:32:29;;;;;;;;;;;;;;;20.31;32.10;100760.91;106198;1288;57482;-81
2023/02/01 10:35:08;;;;;;;;;;;;;;;20.35;32.04;100761.86;105967;1288;61921;-81
2023/02/01 10:37:33;;;;;;;;;;;;;;;20.40;31.95;100758.34;105707;1289;73641;-81
2023/02/01 10:40:00;;;;;;;;;;;;;;;20.44;31.94;100755.20;105654;1289;59700;-81
2023/02/01 10:42:27;;;;;;;;;;;;;;;20.47;31.99;100758.05;105573;1289;59506;-81
2023/02/01 10:44:53;;;;;;;;;;;;;;;20.49;31.97;100756.48;105531;1289;59669;-81
2023/02/01 10:47:18;;;;;;;;;;;;;;;20.49;31.96;100747.37;105688;1288;58034;-82
2023/02/01 10:49:50;;;;;;;;;;;;;;;20.48;31.93;100743.65;105543;1289;59623;-82
2023/02/01 10:52:17;;;;;;;;;;;;;;;20.47;32.02;100747.13;105661;1288;59883;-83
2023/02/01 10:54:42;;;;;;;;;;;;;;;20.44;32.11;100748.90;105640;1288;59356;-83
2023/02/01 10:57:09;;;;;;;;;;;;;;;20.42;31.86;100744.75;105451;1289;59451;-82
2023/02/01 10:59:36;;;;;;;;;;;;;;;20.40;31.78;100749.19;105763;1289;60194;-82
2023/02/01 11:02:05;;;;;;;;;;;;;;;20.37;31.79;100742.77;105727;1288;60396;-82
2023/02/01 11:04:33;;;;;;;;;;;;;;;20.29;31.75;100738.16;105627;1289;60259;-82
2023/02/01 11:07:07;;;;;;;;;;;;;;;20.08;31.55;100736.56;105624;1289;73884;-82
2023/02/01 11:09:32;;;;;;;;;;;;;;;19.90;31.63;100736.84;105624;1291;77287;-82
2023/02/01 11:11:58;;;;;;;;;;;;;;;19.86;31.78;100726.76;105716;1288;60242;-82
2023/02/01 11:14:24;;;;;;;;;;;;;;;19.84;31.80;100723.52;105645;1289;58962;-81
2023/02/01 11:16:51;;;;;;;;;;;;;;;19.85;31.77;100714.52;105799;1288;59136;-82
2023/02/01 11:19:17;;;;;;;;;;;;;;;19.89;31.87;100711.77;105735;1289;60088;-82
2023/02/01 11:21:44;;;;;;;;;;;;;;;19.92;31.81;100706.33;105861;1288;58407;-85
2023/02/01 11:24:38;;;;;;;;;;;;;;;19.96;31.88;100703.98;105771;1289;59254;-82
2023/02/01 11:27:03;;;;;;;;;;;;;;;20.00;31.64;100699.44;105798;1288;72514;-82
2023/02/01 11:29:31;;;;;;;;;;;;;;;20.03;31.72;100705.79;105792;1288;59266;-81
2023/02/01 11:31:58;;;;;;;;;;;;;;;20.06;31.52;100701.14;105762;1289;59774;-82
2023/02/01 11:34:33;;;;;;;;;;;;;;;20.09;31.67;100703.23;105889;1288;60500;-83
2023/02/01 11:37:00;;;;;;;;;;;;;;;20.14;31.56;100696.70;105799;1288;73591;-82
2023/02/01 11:39:29;;;;;;;;;;;;;;;20.16;31.59;100701.55;105779;1289;73697;-83
2023/02/01 11:42:04;;;;;;;;;;;;;;;20.16;31.64;100701.20;105821;1288;61292;-82
2023/02/01 11:44:30;;;;;;;;;;;;;;;20.13;31.60;100702.80;105781;1288;61089;-82
2023/02/01 11:46:55;;;;;;;;;;;;;;;20.11;31.65;100702.05;105787;1288;60426;-82
2023/02/01 11:49:22;;;;;;;;;;;;;;;20.10;31.59;100696.75;105738;1288;60476;-82
2023/02/01 11:51:48;;;;;;;;;;;;;;;20.09;31.66;100693.77;105789;1289;58709;-82
2023/02/01 11:54:26;;;;;;;;;;;;;;;20.07;31.47;100689.96;105773;1289;60045;-81
2023/02/01 11:57:08;;;;;;;;;;;;;;;20.06;31.60;100685.45;105875;1288;74091;-83
2023/02/01 11:59:54;;;;;;;;;;;;;;;20.05;31.57;100686.17;105665;1289;73592;-81
2023/02/01 12:02:37;;;;;;;;;;;;;;;20.03;31.66;100687.08;105568;1288;59082;-82
2023/02/01 12:05:42;;;;;;;;;;;;;;;19.89;31.51;100685.91;106113;1288;60141;-82
2023/02/01 12:08:10;;;;;;;;;;;;;;;19.77;31.82;100678.26;105340;1295;73351;-82
2023/02/01 12:10:35;;;;;;;;;;;;;;;19.68;31.69;100684.21;105246;1295;73361;-82
2023/02/01 12:13:07;;;;;;;;;;;;;;;19.63;31.60;100668.29;105692;1291;59175;-82
2023/02/01 12:15:51;;;;;;;;;;;;;;;19.65;31.89;100665.84;106043;1289;59663;-82
2023/02/01 12:18:16;;;;;;;;;;;;;;;19.66;31.90;100658.07;106065;1291;72185;-82
2023/02/01 12:20:48;;;;;;;;;;;;;;;19.66;31.65;100658.11;106086;1289;58625;-82
2023/02/01 12:23:27;;;;;;;;;;;;;;;19.64;31.89;100661.10;106047;1288;59941;-82
2023/02/01 12:26:09;;;;;;;;;;;;;;;19.64;31.97;100659.15;105976;1289;60119;-82
2023/02/01 12:28:53;;;;;;;;;;;;;;;19.59;31.87;100662.95;106020;1289;72532;-82
2023/02/01 12:31:48;;;;;;;;;;;;;;;19.61;31.83;100656.83;106188;1288;73500;-83
2023/02/01 12:34:32;;;;;;;;;;;;;;;19.63;31.73;100652.03;106106;1288;58736;-83
2023/02/01 12:37:16;;;;;;;;;;;;;;;19.66;31.86;100650.26;106296;1288;59905;-83
2023/02/01 12:39:45;;;;;;;;;;;;;;;19.69;31.88;100652.02;106230;1288;72462;-83
2023/02/01 12:42:24;;;;;;;;;;;;;;;19.70;31.89;100651.54;106342;1288;73471;-83
2023/02/01 12:44:56;;;;;;;;;;;;;;;19.70;31.76;100649.56;105642;1289;61864;-82
2023/02/01 12:47:22;;;;;;;;;;;;;;;19.71;31.63;100651.70;105773;1288;61072;-83
2023/02/01 12:49:56;;;;;;;;;;;;;;;19.71;31.70;100653.10;105673;1288;60531;-82
2023/02/01 12:52:25;;;;;;;;;;;;;;;19.70;31.52;100652.09;105623;1291;74671;-82
2023/02/01 12:54:56;;;;;;;;;;;;;;;19.69;31.48;100652.00;105613;1289;60356;-82
2023/02/01 12:57:31;;;;;;;;;;;;;;;19.68;31.42;100650.66;105640;1289;60294;-82
2023/02/01 12:59:59;;;;;;;;;;;;;;;19.68;31.48;100653.83;105769;1290;73729;-82
2023/02/01 13:02:41;;;;;;;;;;;;;;;19.69;31.50;100654.30;106000;1288;73768;-82